Home   Weather   Mamëzit Mali i   Past weeks
Flag for Albania

Past Weather in Mamëzit Mali i, Albania — Yesterday and Last 2 Weeks

Currently: 81 °F. Partly sunny. (Weather station: Tirana Airport, Albania). See more current weather

Past Weather in Mamëzit Mali i — Graph

°F

Mamëzit Mali i Temperature Yesterday

Maximum temperature yesterday: 99 °F (at 11:50 am)
Minimum temperature yesterday: 68 °F (at 4:50 am)
Average temperature yesterday: 84 °F

High & Low Weather Summary for the Past Weeks

 TemperatureHumidityPressure
High106 °F (Aug 1, 2:20 pm)94% (Jul 22, 5:50 am)30.04 "Hg (Jul 22, 5:50 am)
Low61 °F (Jul 22, 5:50 am)13% (Aug 1, 2:50 pm)29.74 "Hg (Aug 5, 6:20 pm)
Average82 °F54%29.92 "Hg
* Reported Jul 21 7:20 pm — Aug 5 7:20 pm, Mamëzit Mali i. Weather by CustomWeather, © 2021

Note: Actual official high and low records may vary slightly from our data, if they occured in-between our weather recording intervals... More about our weather records

Mamëzit Mali i Weather History for the Previous 24 Hours

Scroll right to see more
 ConditionsComfort  
Time TempWeatherWind HumidityBarometerVisibility
7:20 pm
Thu, Aug 5
82 °FPartly sunny.2 mph66%29.74 "HgN/A
6:50 pm84 °FPassing clouds.8 mph62%29.74 "HgN/A
6:20 pm88 °FSunny.9 mph62%29.74 "Hg10 mi
5:50 pm88 °FSunny.9 mph59%29.77 "Hg10 mi
5:20 pm90 °FPassing clouds.7 mph52%29.77 "HgN/A
4:50 pm90 °FPassing clouds.6 mph52%29.77 "HgN/A
4:20 pm93 °FScattered clouds.8 mph47%29.77 "HgN/A
3:50 pm93 °FScattered clouds.9 mph47%29.80 "HgN/A
3:20 pm93 °FScattered clouds.14 mph47%29.80 "HgN/A
2:50 pm93 °FScattered clouds.14 mph44%29.80 "HgN/A
2:20 pm93 °FBroken clouds.13 mph41%29.80 "HgN/A
1:50 pm97 °FScattered clouds.12 mph32%29.80 "HgN/A
1:20 pm95 °FScattered clouds.9 mph32%29.80 "HgN/A
12:50 pm93 °FMore clouds than sun.15 mph30%29.80 "HgN/A
12:20 pm93 °FMore clouds than sun.12 mph30%29.83 "HgN/A
11:50 am95 °FOvercast.10 mph25%29.83 "HgN/A
11:20 am97 °FOvercast.13 mph23%29.80 "HgN/A
10:50 am95 °FMore clouds than sun.8 mph23%29.80 "HgN/A
10:20 am95 °FScattered clouds.3 mph30%29.80 "HgN/A
9:20 am88 °FSunny.6 mph43%29.80 "Hg10 mi
8:50 am86 °FSunny.10 mph40%29.83 "Hg10 mi
8:20 am86 °FPassing clouds.5 mph38%29.80 "HgN/A
7:50 am82 °FPassing clouds.5 mph42%29.80 "HgN/A
7:20 am77 °FSunny.6 mph54%29.80 "Hg10 mi
6:50 am73 °FSunny.2 mph61%29.83 "Hg10 mi
6:20 am70 °FSunny.3 mph69%29.83 "Hg10 mi
5:50 am70 °FSunny.5 mph69%29.83 "Hg10 mi
5:20 am70 °FClear.1 mph64%29.83 "Hg10 mi
4:50 am70 °FClear.5 mph64%29.83 "Hg10 mi
4:20 am70 °FClear.1 mph69%29.86 "Hg10 mi
3:50 am72 °FClear.5 mph65%29.86 "Hg10 mi
3:20 am72 °FClear.3 mph69%29.86 "Hg10 mi
2:50 am72 °FClear.1 mph69%29.89 "Hg10 mi
1:50 am73 °FClear.5 mph61%29.89 "Hg10 mi
1:20 am75 °FClear.5 mph57%29.89 "Hg10 mi
12:50 am77 °FPassing clouds.5 mph54%29.89 "HgN/A
12:20 am73 °FClear.5 mph61%29.92 "Hg10 mi
11:50 pm
Wed, Aug 4
77 °FClear.5 mph54%29.92 "Hg10 mi
11:20 pm77 °FClear.5 mph57%29.92 "Hg10 mi
10:50 pm77 °FClear.5 mph61%29.92 "Hg10 mi
10:20 pm77 °FClear.6 mph57%29.92 "Hg10 mi
9:50 pm81 °FClear.6 mph51%29.92 "Hg10 mi
9:20 pm81 °FClear.5 mph58%29.92 "Hg10 mi
8:50 pm77 °FClear.3 mph65%29.92 "Hg10 mi
8:20 pm84 °FClear.2 mph58%29.92 "Hg10 mi
Weather by CustomWeather, © 2021

See weather overview